Time;durP1;ratioP1;P1;durP2;ratioP2;P2;SDS_P1;SDS_P2;PMS_P1;PMS_P2;Temp;Humidity;BMP_temperature;BMP_pressure;BME280_temperature;BME280_humidity;BME280_pressure;Samples;Min_cycle;Max_cycle;Signal;HPM_P1;HPM_P2
2023/04/28 00:04:38;;;;;;;3.42;1.83;;;;;;;;;;10334466;28;20043;-87
2023/04/28 00:09:43;;;;;;;2.95;2.25;;;;;;;;;;10328826;28;20077;-88
2023/04/28 00:14:47;;;;;;;3.45;1.65;;;;;;;;;;10317831;28;20054;-86
2023/04/28 00:19:51;;;;;;;3.65;1.67;;;;;;;;;;10312625;28;20178;-85
2023/04/28 00:24:56;;;;;;;2.50;1.80;;;;;;;;;;10309283;28;20074;-85
2023/04/28 00:30:00;;;;;;;3.45;1.70;;;;;;;;;;10313502;28;20051;-85
2023/04/28 00:35:04;;;;;;;2.20;1.50;;;;;;;;;;10308781;28;20508;-86
2023/04/28 00:40:10;;;;;;;3.63;1.55;;;;;;;;;;10315685;28;20553;-88
2023/04/28 00:45:13;;;;;;;3.40;1.90;;;;;;;;;;10330661;28;20147;-89
2023/04/28 00:50:17;;;;;;;2.65;1.83;;;;;;;;;;10312982;28;20054;-85
2023/04/28 00:55:24;;;;;;;2.85;1.70;;;;;;;;;;10328706;28;20050;-85
2023/04/28 01:00:29;;;;;;;3.50;1.92;;;;;;;;;;10314747;28;20062;-86
2023/04/28 01:05:34;;;;;;;2.33;1.88;;;;;;;;;;10316794;28;20046;-84
2023/04/28 01:10:57;;;;;;;1.83;1.65;;;;;;;;;;10313375;28;20046;-86
2023/04/28 01:16:29;;;;;;;2.03;1.55;;;;;;;;;;10320680;28;20533;-89
2023/04/28 01:21:36;;;;;;;1.98;1.52;;;;;;;;;;10311333;28;20042;-85
2023/04/28 01:26:53;;;;;;;;;;;;;;;;;;10320881;28;20053;-85
2023/04/28 01:31:57;;;;;;;1.67;1.58;;;;;;;;;;10309369;28;19926;-85
2023/04/28 01:37:08;;;;;;;2.13;1.92;;;;;;;;;;10314535;28;20097;-85
2023/04/28 01:42:18;;;;;;;3.58;1.95;;;;;;;;;;10333336;28;20681;-85
2023/04/28 01:47:21;;;;;;;2.60;1.90;;;;;;;;;;10310460;28;20057;-89
2023/04/28 01:52:26;;;;;;;2.45;1.77;;;;;;;;;;10304523;28;20046;-85
2023/04/28 01:57:36;;;;;;;2.72;1.73;;;;;;;;;;10320146;28;20053;-88
2023/04/28 02:02:42;;;;;;;3.13;1.73;;;;;;;;;;10320988;28;20069;-85
2023/04/28 02:07:53;;;;;;;;;;;;;;;;;;10316377;28;20566;-85
2023/04/28 02:12:58;;;;;;;3.88;2.20;;;;;;;;;;10316507;28;19921;-85
2023/04/28 02:18:01;;;;;;;1.83;1.45;;;;;;;;;;10298757;28;20105;-88
2023/04/28 02:23:06;;;;;;;3.03;2.70;;;;;;;;;;10311377;28;20043;-84
2023/04/28 02:28:11;;;;;;;2.00;1.80;;;;;;;;;;10311188;28;20070;-84
2023/04/28 02:33:15;;;;;;;2.17;1.50;;;;;;;;;;10309347;28;20046;-83
2023/04/28 02:38:18;;;;;;;1.67;1.40;;;;;;;;;;10303082;28;20501;-84
2023/04/28 02:43:23;;;;;;;4.05;1.67;;;;;;;;;;10300379;28;20046;-84
2023/04/28 02:48:27;;;;;;;2.38;1.77;;;;;;;;;;10301450;28;20050;-84
2023/04/28 02:53:30;;;;;;;2.00;1.42;;;;;;;;;;10314510;28;20050;-84
2023/04/28 02:58:35;;;;;;;3.25;1.80;;;;;;;;;;10307769;28;20414;-83
2023/04/28 03:03:38;;;;;;;2.13;1.50;;;;;;;;;;10309126;28;20053;-83
2023/04/28 03:08:42;;;;;;;2.03;1.50;;;;;;;;;;10325986;28;20536;-83
2023/04/28 03:13:47;;;;;;;3.25;1.75;;;;;;;;;;10307477;28;20046;-84
2023/04/28 03:18:50;;;;;;;2.13;1.75;;;;;;;;;;10307782;28;20046;-83
2023/04/28 03:23:55;;;;;;;1.95;1.75;;;;;;;;;;10296629;28;20584;-84
2023/04/28 03:28:59;;;;;;;2.28;1.88;;;;;;;;;;10289011;28;20054;-84
2023/04/28 03:34:03;;;;;;;2.38;2.03;;;;;;;;;;10317831;28;20050;-83
2023/04/28 03:39:07;;;;;;;2.70;1.60;;;;;;;;;;10294904;28;20046;-84
2023/04/28 03:44:11;;;;;;;2.50;1.80;;;;;;;;;;10311392;28;20485;-83
2023/04/28 03:49:23;;;;;;;2.22;1.45;;;;;;;;;;10301498;28;20059;-83
2023/04/28 03:54:27;;;;;;;5.68;1.85;;;;;;;;;;10307304;28;20058;-83
2023/04/28 03:59:33;;;;;;;2.03;1.80;;;;;;;;;;10292916;28;20051;-83
2023/04/28 04:04:36;;;;;;;2.55;1.55;;;;;;;;;;10314097;28;20232;-84
2023/04/28 04:09:40;;;;;;;2.05;1.80;;;;;;;;;;10301978;28;20046;-84
2023/04/28 04:14:47;;;;;;;3.03;2.35;;;;;;;;;;10301912;28;20051;-84
2023/04/28 04:19:57;;;;;;;2.67;1.92;;;;;;;;;;10297859;28;20050;-86
2023/04/28 04:25:03;;;;;;;2.10;1.83;;;;;;;;;;10287350;28;20068;-86
2023/04/28 04:30:12;;;;;;;1.73;1.48;;;;;;;;;;10301519;28;20058;-86
2023/04/28 04:35:16;;;;;;;1.90;1.55;;;;;;;;;;10290629;28;20042;-85
2023/04/28 04:40:19;;;;;;;2.50;1.73;;;;;;;;;;10309636;28;20529;-85
2023/04/28 04:45:27;;;;;;;2.30;1.63;;;;;;;;;;10324540;28;20553;-86
2023/04/28 04:50:31;;;;;;;2.95;1.70;;;;;;;;;;10318676;28;20046;-85
2023/04/28 04:55:34;;;;;;;2.13;1.60;;;;;;;;;;10307172;28;20573;-85
2023/04/28 05:00:40;;;;;;;2.13;1.40;;;;;;;;;;10337182;28;20061;-85
2023/04/28 05:05:45;;;;;;;2.03;1.60;;;;;;;;;;10304387;28;20046;-86
2023/04/28 05:10:56;;;;;;;2.22;1.50;;;;;;;;;;10323699;28;20042;-86
2023/04/28 05:16:02;;;;;;;2.53;1.63;;;;;;;;;;10308976;28;20038;-85
2023/04/28 05:21:10;;;;;;;4.03;2.17;;;;;;;;;;10322690;28;20118;-86
2023/04/28 05:26:14;;;;;;;4.53;2.17;;;;;;;;;;10337368;28;20525;-85
2023/04/28 05:31:19;;;;;;;3.08;1.58;;;;;;;;;;10334399;28;20793;-85
2023/04/28 05:36:23;;;;;;;2.20;1.50;;;;;;;;;;10308239;28;20430;-84
2023/04/28 05:41:27;;;;;;;2.80;1.42;;;;;;;;;;10305916;28;20045;-85
2023/04/28 05:46:32;;;;;;;2.50;1.42;;;;;;;;;;10306538;28;20587;-84
2023/04/28 05:51:37;;;;;;;2.42;1.83;;;;;;;;;;10309605;28;20534;-85
2023/04/28 05:56:41;;;;;;;2.10;1.70;;;;;;;;;;10311666;28;20425;-84
2023/04/28 06:01:52;;;;;;;1.42;1.33;;;;;;;;;;10304870;28;20058;-86
2023/04/28 06:06:55;;;;;;;2.10;1.77;;;;;;;;;;10309951;28;20571;-85
2023/04/28 06:11:59;;;;;;;1.77;1.67;;;;;;;;;;10307825;28;20040;-84
2023/04/28 06:17:05;;;;;;;3.08;1.70;;;;;;;;;;10319488;28;20119;-85
2023/04/28 06:22:08;;;;;;;2.28;1.60;;;;;;;;;;10316054;28;20077;-85
2023/04/28 06:27:11;;;;;;;2.00;1.58;;;;;;;;;;10319233;28;20042;-85
2023/04/28 06:32:16;;;;;;;4.85;1.85;;;;;;;;;;10315882;28;20092;-84
2023/04/28 06:37:21;;;;;;;1.98;1.55;;;;;;;;;;10312063;28;20046;-84
2023/04/28 06:42:25;;;;;;;3.57;2.10;;;;;;;;;;10308697;28;20133;-84
2023/04/28 06:47:40;;;;;;;1.98;1.42;;;;;;;;;;10310625;28;20514;-84
2023/04/28 06:52:46;;;;;;;2.38;1.65;;;;;;;;;;10315402;28;20047;-84
2023/04/28 06:57:50;;;;;;;4.13;2.08;;;;;;;;;;10310449;28;20104;-84
2023/04/28 07:02:55;;;;;;;2.05;1.73;;;;;;;;;;10300982;28;20057;-84
2023/04/28 07:07:58;;;;;;;3.10;1.42;;;;;;;;;;10309553;28;20054;-84
2023/04/28 07:13:02;;;;;;;3.03;1.70;;;;;;;;;;10306893;28;20050;-85
2023/04/28 07:18:07;;;;;;;3.65;1.77;;;;;;;;;;10316685;28;20514;-85
2023/04/28 07:23:10;;;;;;;1.48;1.13;;;;;;;;;;10314382;28;20058;-84
2023/04/28 07:28:14;;;;;;;2.33;1.40;;;;;;;;;;10310505;28;20069;-84
2023/04/28 07:33:19;;;;;;;1.67;1.48;;;;;;;;;;10305535;28;20034;-84
2023/04/28 07:38:23;;;;;;;1.43;1.20;;;;;;;;;;10306711;28;20049;-84
2023/04/28 07:43:29;;;;;;;1.73;1.17;;;;;;;;;;10337454;23;20111;-85
2023/04/28 07:48:33;;;;;;;1.30;1.02;;;;;;;;;;10352275;28;20444;-84
2023/04/28 07:53:37;;;;;;;1.23;1.13;;;;;;;;;;10343940;28;20050;-84
2023/04/28 07:58:40;;;;;;;2.03;1.50;;;;;;;;;;10339361;28;20417;-84
2023/04/28 08:03:45;;;;;;;2.75;1.80;;;;;;;;;;10323461;28;20053;-84
2023/04/28 08:08:48;;;;;;;1.83;1.60;;;;;;;;;;10331783;28;20064;-85
2023/04/28 08:13:51;;;;;;;2.92;2.30;;;;;;;;;;10361676;28;20050;-85
2023/04/28 08:18:56;;;;;;;5.80;3.80;;;;;;;;;;10325773;28;20421;-87
2023/04/28 08:24:00;;;;;;;4.97;3.20;;;;;;;;;;10322776;28;20046;-87
2023/04/28 08:29:03;;;;;;;4.15;2.97;;;;;;;;;;10361594;28;20061;-87
2023/04/28 08:34:08;;;;;;;5.07;3.15;;;;;;;;;;10323640;28;20058;-87
2023/04/28 08:39:11;;;;;;;3.75;2.95;;;;;;;;;;10351599;28;20038;-86
2023/04/28 08:44:16;;;;;;;2.60;2.40;;;;;;;;;;10338335;28;20052;-87
2023/04/28 08:49:31;;;;;;;3.88;2.95;;;;;;;;;;10352644;28;20523;-87
2023/04/28 08:54:37;;;;;;;3.67;2.60;;;;;;;;;;10335871;28;20048;-88
2023/04/28 08:59:41;;;;;;;2.42;1.65;;;;;;;;;;10359672;28;20046;-87
2023/04/28 09:04:47;;;;;;;3.13;2.45;;;;;;;;;;10357122;28;20053;-87
2023/04/28 09:09:50;;;;;;;;;;;;;;;;;;10332333;28;20050;-87
2023/04/28 09:14:59;;;;;;;2.38;1.50;;;;;;;;;;10332909;28;19926;-87
2023/04/28 09:20:19;;;;;;;1.55;1.30;;;;;;;;;;10349763;28;20054;-86
2023/04/28 09:25:25;;;;;;;1.55;1.25;;;;;;;;;;10361513;28;20045;-86
2023/04/28 09:30:39;;;;;;;2.35;1.33;;;;;;;;;;10343747;28;20048;-87
2023/04/28 09:35:46;;;;;;;1.52;1.25;;;;;;;;;;10328097;28;20489;-86
2023/04/28 09:40:57;;;;;;;1.75;1.20;;;;;;;;;;10357737;28;20114;-88
2023/04/28 09:46:01;;;;;;;1.42;1.00;;;;;;;;;;10353339;28;20448;-87
2023/04/28 09:51:08;;;;;;;1.20;1.10;;;;;;;;;;10357227;28;20046;-87
2023/04/28 09:56:12;;;;;;;0.68;0.68;;;;;;;;;;10326041;28;20531;-87
2023/04/28 10:01:15;;;;;;;1.70;0.95;;;;;;;;;;10335888;28;20719;-86
2023/04/28 10:06:20;;;;;;;1.25;1.10;;;;;;;;;;10361803;28;20429;-88
2023/04/28 10:11:25;;;;;;;2.25;0.75;;;;;;;;;;10344578;28;20053;-87
2023/04/28 10:16:31;;;;;;;2.20;1.10;;;;;;;;;;10353649;28;20171;-87
2023/04/28 10:21:44;;;;;;;1.38;0.82;;;;;;;;;;10339181;28;20104;-88
2023/04/28 10:27:04;;;;;;;1.02;0.63;;;;;;;;;;10358176;28;20417;-87
2023/04/28 10:32:22;;;;;;;0.73;0.73;;;;;;;;;;10347515;28;20156;-87
2023/04/28 10:37:58;;;;;;;0.60;0.60;;;;;;;;;;10336258;28;20594;-86
2023/04/28 10:43:04;;;;;;;1.00;0.88;;;;;;;;;;10348648;28;20072;-86
2023/04/28 10:48:07;;;;;;;0.80;0.80;;;;;;;;;;10331098;28;20051;-87
2023/04/28 10:53:10;;;;;;;1.40;1.00;;;;;;;;;;10335779;28;20125;-86
2023/04/28 10:58:36;;;;;;;1.33;0.85;;;;;;;;;;10347209;28;20524;-86
2023/04/28 11:03:43;;;;;;;;;;;;;;;;;;10326218;28;20054;-87
2023/04/28 11:08:46;;;;;;;0.60;0.60;;;;;;;;;;10358447;28;19921;-84
2023/04/28 11:13:52;;;;;;;0.60;0.60;;;;;;;;;;10346649;28;20271;-87
2023/04/28 11:19:03;;;;;;;0.67;0.60;;;;;;;;;;10347244;28;20061;-88
2023/04/28 11:24:10;;;;;;;1.67;0.50;;;;;;;;;;10338481;28;20062;-87
2023/04/28 11:29:15;;;;;;;1.70;0.70;;;;;;;;;;10351460;28;20049;-87
2023/04/28 11:34:20;;;;;;;0.90;0.60;;;;;;;;;;10313957;28;20061;-87
2023/04/28 11:39:28;;;;;;;0.85;0.20;;;;;;;;;;10349376;28;20042;-88
2023/04/28 11:44:33;;;;;;;0.50;0.32;;;;;;;;;;10327242;28;20057;-88
2023/04/28 11:49:46;;;;;;;0.70;0.40;;;;;;;;;;10345198;28;20096;-85
2023/04/28 11:54:54;;;;;;;0.85;0.60;;;;;;;;;;10334861;28;20054;-85
2023/04/28 12:05:46;;;;;;;0.30;0.20;;;;;;;;;;10578143;27;20890;-88
2023/04/28 12:11:08;;;;;;;0.90;0.22;;;;;;;;;;10539452;28;20416;-88
2023/04/28 12:16:12;;;;;;;0.30;0.30;;;;;;;;;;10541518;28;20051;-86
2023/04/28 12:21:22;;;;;;;0.22;0.22;;;;;;;;;;10542168;28;20127;-87
2023/04/28 12:26:26;;;;;;;0.60;0.20;;;;;;;;;;10549209;28;20050;-87
2023/04/28 12:31:29;;;;;;;0.30;0.30;;;;;;;;;;10547194;28;20523;-87
2023/04/28 12:36:34;;;;;;;1.02;0.30;;;;;;;;;;10547404;28;20044;-87
2023/04/28 12:41:37;;;;;;;0.95;0.25;;;;;;;;;;10514083;28;20037;-86
2023/04/28 12:46:40;;;;;;;0.60;0.50;;;;;;;;;;10512514;28;20046;-86
2023/04/28 12:51:45;;;;;;;1.55;0.47;;;;;;;;;;10512099;28;20833;-87
2023/04/28 12:56:49;;;;;;;0.85;0.43;;;;;;;;;;10515010;28;20048;-87
2023/04/28 13:01:52;;;;;;;0.60;0.60;;;;;;;;;;10506610;28;20480;-87
2023/04/28 13:06:57;;;;;;;1.15;0.60;;;;;;;;;;10514649;28;20048;-87
2023/04/28 13:12:02;;;;;;;0.80;0.80;;;;;;;;;;10506280;28;20037;-86
2023/04/28 13:17:06;;;;;;;1.97;1.37;;;;;;;;;;10484510;28;20706;-87
2023/04/28 13:22:11;;;;;;;0.82;0.80;;;;;;;;;;10483417;28;20041;-87
2023/04/28 13:27:15;;;;;;;0.80;0.70;;;;;;;;;;10479386;28;20124;-87
2023/04/28 13:32:18;;;;;;;1.10;1.00;;;;;;;;;;10486736;28;20448;-87
2023/04/28 13:37:23;;;;;;;1.77;0.80;;;;;;;;;;10487197;28;20051;-88
2023/04/28 13:42:26;;;;;;;0.50;0.50;;;;;;;;;;10487281;28;20033;-88
2023/04/28 13:47:33;;;;;;;0.50;0.50;;;;;;;;;;10487541;28;20036;-87
2023/04/28 13:52:37;;;;;;;1.10;1.00;;;;;;;;;;10479615;28;20068;-86
2023/04/28 13:57:41;;;;;;;1.02;0.70;;;;;;;;;;10483397;28;20047;-84
2023/04/28 14:02:45;;;;;;;0.60;0.50;;;;;;;;;;10472180;28;20044;-84
2023/04/28 14:07:50;;;;;;;0.82;0.40;;;;;;;;;;10476736;28;20044;-83
2023/04/28 14:12:54;;;;;;;0.70;0.20;;;;;;;;;;10484332;28;20090;-84
2023/04/28 14:17:57;;;;;;;0.68;0.40;;;;;;;;;;10479443;28;20052;-84
2023/04/28 14:23:02;;;;;;;0.40;0.25;;;;;;;;;;10484115;28;20037;-85
2023/04/28 14:28:05;;;;;;;0.52;0.22;;;;;;;;;;10478773;28;20051;-84
2023/04/28 14:33:09;;;;;;;0.28;0.22;;;;;;;;;;10480228;28;20052;-84
2023/04/28 14:38:14;;;;;;;0.20;0.20;;;;;;;;;;10481132;28;20472;-84
2023/04/28 14:43:17;;;;;;;0.55;0.20;;;;;;;;;;10480944;28;20379;-84
2023/04/28 14:48:21;;;;;;;0.98;0.20;;;;;;;;;;10478085;28;20037;-84
2023/04/28 14:53:26;;;;;;;0.20;0.17;;;;;;;;;;10478713;28;20537;-83
2023/04/28 14:58:29;;;;;;;0.50;0.10;;;;;;;;;;10478459;28;20040;-84
2023/04/28 15:03:33;;;;;;;0.45;0.17;;;;;;;;;;10481425;28;20044;-85
2023/04/28 15:08:39;;;;;;;0.40;0.25;;;;;;;;;;10482778;28;20037;-84
2023/04/28 15:13:42;;;;;;;0.40;0.30;;;;;;;;;;10485858;28;20108;-84
2023/04/28 15:18:45;;;;;;;0.10;0.10;;;;;;;;;;10485515;28;20062;-85
2023/04/28 15:23:50;;;;;;;0.40;0.40;;;;;;;;;;10483873;28;20054;-84
2023/04/28 15:28:53;;;;;;;0.32;0.32;;;;;;;;;;10482932;28;20044;-84
2023/04/28 15:33:57;;;;;;;0.88;0.60;;;;;;;;;;10476904;28;20711;-83
2023/04/28 15:39:01;;;;;;;1.08;0.50;;;;;;;;;;10479455;28;20048;-83
2023/04/28 15:44:05;;;;;;;1.52;0.68;;;;;;;;;;10489660;28;20045;-82
2023/04/28 15:49:08;;;;;;;1.10;0.60;;;;;;;;;;10483500;28;20052;-84
2023/04/28 15:54:13;;;;;;;1.08;0.22;;;;;;;;;;10482190;28;20073;-84
2023/04/28 15:59:17;;;;;;;1.55;0.30;;;;;;;;;;10478767;28;20689;-82
2023/04/28 16:04:21;;;;;;;0.38;0.25;;;;;;;;;;10481106;28;20041;-82
2023/04/28 16:09:25;;;;;;;0.52;0.30;;;;;;;;;;10480702;28;20549;-82
2023/04/28 16:14:29;;;;;;;0.52;0.20;;;;;;;;;;10480273;28;20513;-82
2023/04/28 16:19:32;;;;;;;0.75;0.20;;;;;;;;;;10487503;28;20077;-82
2023/04/28 16:24:41;;;;;;;0.15;0.10;;;;;;;;;;10516883;28;20059;-82
2023/04/28 16:29:44;;;;;;;0.55;0.15;;;;;;;;;;10523172;28;20042;-82
2023/04/28 16:34:47;;;;;;;0.15;0.10;;;;;;;;;;10523583;28;20051;-83
2023/04/28 16:39:52;;;;;;;0.10;0.10;;;;;;;;;;10523510;28;20672;-83
2023/04/28 16:44:57;;;;;;;0.30;0.20;;;;;;;;;;10525219;28;20416;-83
2023/04/28 16:50:00;;;;;;;0.28;0.28;;;;;;;;;;10525557;28;20467;-82
2023/04/28 16:55:06;;;;;;;0.40;0.20;;;;;;;;;;10521687;28;20048;-83
2023/04/28 17:00:11;;;;;;;0.10;0.10;;;;;;;;;;10517631;28;20052;-83
2023/04/28 17:05:14;;;;;;;0.30;0.30;;;;;;;;;;10533200;28;20058;-82
2023/04/28 17:10:19;;;;;;;0.20;0.20;;;;;;;;;;10534834;28;20048;-82
2023/04/28 17:15:23;;;;;;;0.82;0.15;;;;;;;;;;10534469;28;20055;-82
2023/04/28 17:20:26;;;;;;;0.60;0.20;;;;;;;;;;10529062;28;20048;-83
2023/04/28 17:25:30;;;;;;;0.82;0.28;;;;;;;;;;10542955;28;20454;-82
2023/04/28 17:30:36;;;;;;;0.50;0.20;;;;;;;;;;10544760;28;20048;-83
2023/04/28 17:35:39;;;;;;;0.10;0.10;;;;;;;;;;10544769;28;20101;-83
2023/04/28 17:40:47;;;;;;;0.40;0.20;;;;;;;;;;10534082;28;20501;-82
2023/04/28 17:45:52;;;;;;;1.52;0.35;;;;;;;;;;10532172;28;20432;-83
2023/04/28 17:50:56;;;;;;;2.08;0.30;;;;;;;;;;10533872;28;20040;-83
2023/04/28 17:56:02;;;;;;;0.38;0.38;;;;;;;;;;10531688;28;20460;-83
2023/04/28 18:01:07;;;;;;;0.82;0.50;;;;;;;;;;10530001;28;20102;-82
2023/04/28 18:06:10;;;;;;;0.52;0.40;;;;;;;;;;10531183;28;20044;-82
2023/04/28 18:11:15;;;;;;;1.27;0.40;;;;;;;;;;10531941;28;20059;-82
2023/04/28 18:16:19;;;;;;;0.73;0.63;;;;;;;;;;10531153;28;20382;-82
2023/04/28 18:21:23;;;;;;;0.40;0.40;;;;;;;;;;10527960;28;20079;-83
2023/04/28 18:26:27;;;;;;;1.15;0.50;;;;;;;;;;10524592;28;20043;-83
2023/04/28 18:31:30;;;;;;;1.13;0.30;;;;;;;;;;10524485;28;20050;-82
2023/04/28 18:36:35;;;;;;;0.65;0.50;;;;;;;;;;10526729;28;20057;-83
2023/04/28 18:41:40;;;;;;;1.10;0.50;;;;;;;;;;10525024;28;20044;-82
2023/04/28 18:46:43;;;;;;;1.60;0.45;;;;;;;;;;10526423;28;20040;-83
2023/04/28 18:51:46;;;;;;;0.57;0.50;;;;;;;;;;10529475;28;20505;-82
2023/04/28 18:56:51;;;;;;;0.73;0.40;;;;;;;;;;10526565;28;20382;-83
2023/04/28 19:01:54;;;;;;;1.40;0.73;;;;;;;;;;10533203;28;20054;-84
2023/04/28 19:06:58;;;;;;;2.45;0.60;;;;;;;;;;10544844;28;20044;-83
2023/04/28 19:12:03;;;;;;;1.67;1.00;;;;;;;;;;10542160;28;20044;-83
2023/04/28 19:17:06;;;;;;;1.02;0.77;;;;;;;;;;10543857;28;20050;-82
2023/04/28 19:22:30;;;;;;;1.05;0.68;;;;;;;;;;10530842;28;20040;-83
2023/04/28 19:27:37;;;;;;;4.43;0.88;;;;;;;;;;10518724;28;20051;-83
2023/04/28 19:32:41;;;;;;;0.90;0.50;;;;;;;;;;10529041;28;20051;-83
2023/04/28 19:37:44;;;;;;;0.40;0.40;;;;;;;;;;10530183;28;20082;-83
2023/04/28 19:42:49;;;;;;;0.80;0.75;;;;;;;;;;10540787;22;20036;-87
2023/04/28 19:47:54;;;;;;;3.83;2.97;;;;;;;;;;10459782;28;20064;-87
2023/04/28 19:52:57;;;;;;;6.03;4.20;;;;;;;;;;10512206;28;20044;-86
2023/04/28 19:58:02;;;;;;;4.03;2.90;;;;;;;;;;10509695;28;20053;-86
2023/04/28 20:03:07;;;;;;;2.15;1.42;;;;;;;;;;10517683;28;20264;-87
2023/04/28 20:08:11;;;;;;;1.90;0.95;;;;;;;;;;10500474;28;20130;-86
2023/04/28 20:13:16;;;;;;;1.38;1.00;;;;;;;;;;10512579;28;20040;-86
2023/04/28 20:18:22;;;;;;;2.97;1.60;;;;;;;;;;10511383;28;20044;-87
2023/04/28 20:23:25;;;;;;;1.73;0.93;;;;;;;;;;10497548;28;20529;-86
2023/04/28 20:28:30;;;;;;;0.60;0.60;;;;;;;;;;10516540;28;20123;-86
2023/04/28 20:33:33;;;;;;;0.93;0.65;;;;;;;;;;10509133;28;20044;-86
2023/04/28 20:38:36;;;;;;;0.70;0.50;;;;;;;;;;10525391;28;20483;-86
2023/04/28 20:43:41;;;;;;;0.70;0.70;;;;;;;;;;10526147;28;20497;-86
2023/04/28 20:48:45;;;;;;;0.80;0.70;;;;;;;;;;10505921;28;20559;-87
2023/04/28 20:53:48;;;;;;;0.77;0.60;;;;;;;;;;10521233;28;20036;-85
2023/04/28 20:58:53;;;;;;;0.50;0.50;;;;;;;;;;10507925;28;20055;-86
2023/04/28 21:03:56;;;;;;;0.40;0.40;;;;;;;;;;10508253;28;20055;-86
2023/04/28 21:09:00;;;;;;;0.47;0.47;;;;;;;;;;10525055;28;20046;-87
2023/04/28 21:14:05;;;;;;;0.70;0.40;;;;;;;;;;10506065;28;20062;-86
2023/04/28 21:19:08;;;;;;;1.23;0.75;;;;;;;;;;10502551;28;20040;-87
2023/04/28 21:24:12;;;;;;;0.55;0.43;;;;;;;;;;10507748;28;20146;-87
2023/04/28 21:29:17;;;;;;;0.43;0.40;;;;;;;;;;10524119;28;20052;-86
2023/04/28 21:34:20;;;;;;;0.52;0.52;;;;;;;;;;10514715;28;20048;-86
2023/04/28 21:39:27;;;;;;;1.10;0.70;;;;;;;;;;10520057;28;20047;-87
2023/04/28 21:44:31;;;;;;;0.68;0.60;;;;;;;;;;10523599;28;20048;-87
2023/04/28 21:49:35;;;;;;;3.10;1.05;;;;;;;;;;10505300;28;20051;-87
2023/04/28 21:54:38;;;;;;;1.15;0.80;;;;;;;;;;10506574;28;20036;-86
2023/04/28 21:59:43;;;;;;;3.17;1.00;;;;;;;;;;10504357;28;20047;-86
2023/04/28 22:04:46;;;;;;;1.52;0.90;;;;;;;;;;10522432;28;20044;-86
2023/04/28 22:09:50;;;;;;;1.00;0.70;;;;;;;;;;10500511;28;20127;-86
2023/04/28 22:14:55;;;;;;;0.60;0.60;;;;;;;;;;10516809;28;20570;-87
2023/04/28 22:19:58;;;;;;;0.50;0.50;;;;;;;;;;10516076;28;20044;-86
2023/04/28 22:25:01;;;;;;;0.40;0.40;;;;;;;;;;10517089;28;20055;-86
2023/04/28 22:30:08;;;;;;;0.50;0.50;;;;;;;;;;10503775;28;20040;-85
2023/04/28 22:35:11;;;;;;;0.77;0.60;;;;;;;;;;10508170;28;20044;-88
2023/04/28 22:40:15;;;;;;;0.80;0.60;;;;;;;;;;10522766;28;20048;-88
2023/04/28 22:45:19;;;;;;;1.13;0.50;;;;;;;;;;10510670;28;20628;-89
2023/04/28 22:50:23;;;;;;;1.70;1.00;;;;;;;;;;10509262;28;20040;-88
2023/04/28 22:55:27;;;;;;;0.70;0.70;;;;;;;;;;10510277;28;20421;-88
2023/04/28 23:00:32;;;;;;;1.50;0.50;;;;;;;;;;10509670;28;20044;-91
2023/04/28 23:05:39;;;;;;;1.10;0.60;;;;;;;;;;10506359;28;20039;-91
2023/04/28 23:10:42;;;;;;;;;;;;;;;;;;10507913;28;20040;-88
2023/04/28 23:15:47;;;;;;;0.60;0.60;;;;;;;;;;10521144;28;19930;-90
2023/04/28 23:20:50;;;;;;;0.70;0.57;;;;;;;;;;10527002;28;20131;-87
2023/04/28 23:25:54;;;;;;;0.75;0.70;;;;;;;;;;10507614;28;20043;-88
2023/04/28 23:30:59;;;;;;;1.20;0.60;;;;;;;;;;10509987;28;20056;-88
2023/04/28 23:36:02;;;;;;;1.00;0.50;;;;;;;;;;10508830;28;20028;-87
2023/04/28 23:41:07;;;;;;;2.63;0.70;;;;;;;;;;10504390;28;20040;-89
2023/04/28 23:46:12;;;;;;;1.30;0.68;;;;;;;;;;10524964;28;20040;-88
2023/04/28 23:51:15;;;;;;;0.40;0.40;;;;;;;;;;10524581;28;20058;-87
2023/04/28 23:56:18;;;;;;;1.05;0.50;;;;;;;;;;10507387;28;20706;-87
